createdAt,value
2023-06-11T00:00:39.311Z,93992.75
2023-06-11T00:03:10.300Z,93996.66
2023-06-11T00:05:38.973Z,94004.13
2023-06-11T00:08:07.071Z,94001.88
2023-06-11T00:10:36.432Z,94000.03
2023-06-11T00:13:04.435Z,93996.97
2023-06-11T00:15:37.167Z,93988.97
2023-06-11T00:18:06.430Z,93980.31
2023-06-11T00:20:43.126Z,93996.16
2023-06-11T00:23:11.462Z,93989.22
2023-06-11T00:25:41.024Z,93998.47
2023-06-11T00:28:09.230Z,93990.59
2023-06-11T00:30:37.144Z,94000.66
2023-06-11T00:33:05.225Z,93977.81
2023-06-11T00:35:33.225Z,94000.06
2023-06-11T00:38:01.789Z,93991.06
2023-06-11T00:40:29.809Z,94000.19
2023-06-11T00:42:59.147Z,93998.03
2023-06-11T00:45:28.604Z,93990.50
2023-06-11T00:47:56.977Z,93998.25
2023-06-11T00:50:24.902Z,93991.84
2023-06-11T00:52:52.858Z,93994.03
2023-06-11T00:55:22.292Z,93995.88
2023-06-11T00:57:50.639Z,93991.97
2023-06-11T01:00:23.164Z,93992.22
2023-06-11T01:03:01.205Z,93994.16
2023-06-11T01:05:33.033Z,93993.69
2023-06-11T01:08:01.423Z,93999.97
2023-06-11T01:10:30.923Z,93998.81
2023-06-11T01:12:58.972Z,94002.03
2023-06-11T01:15:28.571Z,93986.25
2023-06-11T01:18:03.462Z,93986.03
2023-06-11T01:20:37.139Z,94004.97
2023-06-11T01:23:22.094Z,93990.81
2023-06-11T01:26:05.568Z,93985.88
2023-06-11T01:28:37.455Z,93993.09
2023-06-11T01:31:10.798Z,93994.34
2023-06-11T01:33:39.013Z,93993.09
2023-06-11T01:36:07.432Z,93988.88
2023-06-11T01:38:43.418Z,93987.59
2023-06-11T01:41:12.740Z,93988.28
2023-06-11T01:43:42.674Z,93997.53
2023-06-11T01:46:10.818Z,93988.84
2023-06-11T01:48:38.804Z,93989.84
2023-06-11T01:51:08.202Z,93988.09
2023-06-11T01:53:36.218Z,93994.34
2023-06-11T01:56:04.228Z,93997.31
2023-06-11T01:58:32.246Z,93994.91
2023-06-11T02:01:03.231Z,94003.44
2023-06-11T02:03:31.497Z,93998.19
2023-06-11T02:05:59.655Z,93998.28
2023-06-11T02:08:28.420Z,93995.00
2023-06-11T02:10:56.582Z,94007.88
2023-06-11T02:13:26.744Z,94012.94
2023-06-11T02:15:54.719Z,94012.47
2023-06-11T02:18:24.052Z,94010.63
2023-06-11T02:20:51.998Z,94010.31
2023-06-11T02:23:20.026Z,94004.69
2023-06-11T02:25:48.185Z,94001.97
2023-06-11T02:28:17.372Z,94000.59
2023-06-11T02:30:45.355Z,94007.81
2023-06-11T02:33:13.311Z,93998.56
2023-06-11T02:35:42.782Z,94006.22
2023-06-11T02:38:11.054Z,94004.72
2023-06-11T02:40:38.949Z,94010.78
2023-06-11T02:43:06.935Z,94003.69
2023-06-11T02:45:36.082Z,94005.41
2023-06-11T02:48:04.179Z,93995.72
2023-06-11T02:50:32.111Z,94000.28
2023-06-11T02:53:01.509Z,93999.28
2023-06-11T02:55:29.383Z,93998.94
2023-06-11T02:57:57.249Z,93998.16
2023-06-11T03:00:25.173Z,94003.06
2023-06-11T03:02:53.218Z,94005.09
2023-06-11T03:05:21.412Z,94013.09
2023-06-11T03:07:49.459Z,94006.47
2023-06-11T03:10:18.875Z,94009.44
2023-06-11T03:12:46.844Z,94006.34
2023-06-11T03:15:15.126Z,94005.06
2023-06-11T03:17:43.152Z,94016.50
2023-06-11T03:20:11.903Z,94015.50
2023-06-11T03:22:40.239Z,94025.28
2023-06-11T03:25:09.012Z,94006.78
2023-06-11T03:27:38.755Z,94021.63
2023-06-11T03:30:08.235Z,94023.09
2023-06-11T03:32:36.335Z,94026.22
2023-06-11T03:35:04.348Z,94035.34
2023-06-11T03:37:32.287Z,94045.63
2023-06-11T03:40:01.005Z,94039.91
2023-06-11T03:42:30.035Z,94044.59
2023-06-11T03:44:59.435Z,94044.59
2023-06-11T03:47:27.711Z,94045.06
2023-06-11T03:49:55.698Z,94044.59
2023-06-11T03:52:23.655Z,94043.69
2023-06-11T03:54:51.584Z,94053.88
2023-06-11T03:57:19.845Z,94042.91
2023-06-11T03:59:47.885Z,94046.09
2023-06-11T04:02:17.315Z,94036.47
2023-06-11T04:04:45.602Z,94043.47
2023-06-11T04:07:13.726Z,94045.84
2023-06-11T04:09:41.744Z,94043.91
2023-06-11T04:12:11.123Z,94046.44
2023-06-11T04:14:39.426Z,94037.50
2023-06-11T04:17:08.111Z,94040.47
2023-06-11T04:19:37.428Z,94043.22
2023-06-11T04:22:05.861Z,94041.13
2023-06-11T04:24:33.928Z,94039.41
2023-06-11T04:27:01.868Z,94044.91
2023-06-11T04:29:30.930Z,94047.06
2023-06-11T04:32:04.476Z,94043.84
2023-06-11T04:34:35.311Z,94034.94
2023-06-11T04:37:06.147Z,94042.59
2023-06-11T04:39:34.116Z,94039.28
2023-06-11T04:42:03.381Z,94036.09
2023-06-11T04:44:33.181Z,94038.09
2023-06-11T04:47:02.403Z,94040.50
2023-06-11T04:49:30.636Z,94021.19
2023-06-11T04:51:59.255Z,94028.00
2023-06-11T04:54:29.487Z,94022.16
2023-06-11T04:56:58.152Z,94028.06
2023-06-11T04:59:29.253Z,94033.03
2023-06-11T05:01:57.603Z,94034.38
2023-06-11T05:04:25.598Z,94044.91
2023-06-11T05:06:56.014Z,94034.97
2023-06-11T05:09:23.973Z,94038.56
2023-06-11T05:11:53.322Z,94045.25
2023-06-11T05:14:21.271Z,94035.75
2023-06-11T05:16:52.214Z,94043.94
2023-06-11T05:19:20.354Z,94040.50
2023-06-11T05:21:49.112Z,94042.75
2023-06-11T05:24:21.894Z,94052.03
2023-06-11T05:26:50.204Z,94044.28
2023-06-11T05:29:19.506Z,94034.00
2023-06-11T05:31:47.712Z,94053.31
2023-06-11T05:34:16.094Z,94055.47
2023-06-11T05:36:46.577Z,94051.47
2023-06-11T05:39:15.249Z,94055.38
2023-06-11T05:41:43.226Z,94062.25
2023-06-11T05:44:11.450Z,94063.00
2023-06-11T05:46:40.865Z,94060.69
2023-06-11T05:49:08.826Z,94067.19
2023-06-11T05:51:36.806Z,94062.44
2023-06-11T05:54:05.659Z,94049.06
2023-06-11T05:56:33.644Z,94060.88
2023-06-11T05:59:01.852Z,94071.25
2023-06-11T06:01:29.915Z,94071.06
2023-06-11T06:03:59.362Z,94068.69
2023-06-11T06:06:28.052Z,94054.78
2023-06-11T06:08:56.683Z,94069.25
2023-06-11T06:11:24.778Z,94046.00
2023-06-11T06:13:52.796Z,94073.50
2023-06-11T06:16:20.871Z,94070.44
2023-06-11T06:18:48.851Z,94080.09
2023-06-11T06:21:18.293Z,94072.53
2023-06-11T06:23:46.272Z,94065.16
2023-06-11T06:26:14.657Z,94075.13
2023-06-11T06:28:42.712Z,94066.72
2023-06-11T06:31:13.862Z,94071.03
2023-06-11T06:33:42.058Z,94050.50
2023-06-11T06:36:10.048Z,94070.66
2023-06-11T06:38:39.392Z,94072.31
2023-06-11T06:41:07.456Z,94066.44
2023-06-11T06:43:35.650Z,94070.50
2023-06-11T06:46:03.650Z,94057.81
2023-06-11T06:48:31.845Z,94065.31
2023-06-11T06:50:59.890Z,94056.53
2023-06-11T06:53:27.900Z,94059.16
2023-06-11T06:56:00.172Z,94058.16
2023-06-11T06:58:29.562Z,94049.59
2023-06-11T07:00:57.879Z,94061.84
2023-06-11T07:03:26.131Z,94062.97
2023-06-11T07:05:54.298Z,94057.81
2023-06-11T07:08:22.410Z,94055.50
2023-06-11T07:10:52.934Z,94052.34
2023-06-11T07:13:22.626Z,94058.41
2023-06-11T07:15:51.790Z,94047.38
2023-06-11T07:18:20.057Z,94057.78
2023-06-11T07:20:48.086Z,94050.44
2023-06-11T07:23:16.173Z,94051.56
2023-06-11T07:25:45.196Z,94048.72
2023-06-11T07:28:13.150Z,94045.59
2023-06-11T07:30:42.526Z,94048.31
2023-06-11T07:33:10.644Z,94051.88
2023-06-11T07:35:38.632Z,94048.03
2023-06-11T07:38:06.879Z,94041.75
2023-06-11T07:40:34.869Z,94039.50
2023-06-11T07:43:02.796Z,94040.13
2023-06-11T07:45:30.825Z,94041.22
2023-06-11T07:48:00.249Z,94046.53
2023-06-11T07:50:28.501Z,94033.28
2023-06-11T07:52:57.580Z,94036.59
2023-06-11T07:55:25.558Z,94029.03
2023-06-11T07:57:53.489Z,94025.41
2023-06-11T08:00:22.173Z,94032.88
2023-06-11T08:02:53.351Z,94029.66
2023-06-11T08:05:23.404Z,94031.22
2023-06-11T08:07:51.467Z,94033.91
2023-06-11T08:10:19.521Z,94029.53
2023-06-11T08:12:47.600Z,94031.44
2023-06-11T08:15:16.998Z,94026.41
2023-06-11T08:17:45.080Z,94030.41
2023-06-11T08:20:14.351Z,94025.38
2023-06-11T08:22:43.865Z,94021.13
2023-06-11T08:25:13.524Z,94015.28
2023-06-11T08:27:41.643Z,94025.38
2023-06-11T08:30:10.837Z,94028.28
2023-06-11T08:32:39.144Z,94028.22
2023-06-11T08:35:08.689Z,94015.97
2023-06-11T08:37:36.662Z,94021.00
2023-06-11T08:40:07.910Z,94020.50
2023-06-11T08:42:36.347Z,94025.81
2023-06-11T08:45:04.548Z,94010.16
2023-06-11T08:47:33.349Z,94028.41
2023-06-11T08:50:03.460Z,94019.31
2023-06-11T08:52:36.094Z,94014.47
2023-06-11T08:55:05.898Z,94021.16
2023-06-11T08:57:33.881Z,94022.34
2023-06-11T09:00:01.884Z,94017.50
2023-06-11T09:02:29.999Z,94013.69
2023-06-11T09:04:58.361Z,94018.72
2023-06-11T09:07:26.795Z,94009.38
2023-06-11T09:10:08.828Z,94010.91
2023-06-11T09:12:37.281Z,94000.72
2023-06-11T09:15:07.546Z,94002.53
2023-06-11T09:17:36.872Z,93995.13
2023-06-11T09:20:07.576Z,94001.22
2023-06-11T09:22:37.357Z,93992.94
2023-06-11T09:25:10.184Z,94000.59
2023-06-11T09:27:38.588Z,93984.84
2023-06-11T09:30:11.583Z,93991.00
2023-06-11T09:32:41.885Z,93988.03
2023-06-11T09:35:11.535Z,93982.28
2023-06-11T09:37:46.765Z,93991.06
2023-06-11T09:40:18.756Z,93995.34
2023-06-11T09:42:47.902Z,93991.97
2023-06-11T09:45:17.420Z,93981.09
2023-06-11T09:47:47.545Z,93987.66
2023-06-11T09:50:17.340Z,93976.41
2023-06-11T09:52:46.916Z,93977.44
2023-06-11T09:55:16.314Z,93983.88
2023-06-11T09:57:45.161Z,93974.94
2023-06-11T10:00:15.017Z,93972.44
2023-06-11T10:02:45.697Z,93974.84
2023-06-11T10:05:14.753Z,93975.97
2023-06-11T10:07:51.028Z,93970.97
2023-06-11T10:10:23.500Z,93973.28
2023-06-11T10:12:52.290Z,93973.19
2023-06-11T10:15:20.401Z,93965.81
2023-06-11T10:17:50.283Z,93964.41
2023-06-11T10:20:20.483Z,93962.09
2023-06-11T10:22:48.435Z,93953.59
2023-06-11T10:25:16.584Z,93957.94
2023-06-11T10:27:46.087Z,93956.59
2023-06-11T10:30:25.595Z,93952.56
2023-06-11T10:32:55.215Z,93950.72
2023-06-11T10:35:25.324Z,93944.50
2023-06-11T10:38:03.514Z,93939.94
2023-06-11T10:40:39.356Z,93940.91
2023-06-11T10:43:18.032Z,93948.75
2023-06-11T10:45:48.675Z,93943.59
2023-06-11T10:48:31.729Z,93946.78
2023-06-11T10:51:03.980Z,93929.41
2023-06-11T10:53:39.034Z,93937.03
2023-06-11T10:56:07.294Z,93944.25
2023-06-11T10:58:37.616Z,93936.56
2023-06-11T11:01:08.219Z,93934.91
2023-06-11T11:03:37.179Z,93933.50
2023-06-11T11:06:05.788Z,93918.97
2023-06-11T11:08:33.994Z,93915.09
2023-06-11T11:11:02.212Z,93917.38
2023-06-11T11:13:31.158Z,93931.25
2023-06-11T11:16:03.864Z,93917.56
2023-06-11T11:18:31.863Z,93930.97
2023-06-11T11:21:01.840Z,93922.56
2023-06-11T11:23:29.885Z,93929.31
2023-06-11T11:25:57.807Z,93937.97
2023-06-11T11:28:25.841Z,93947.66
2023-06-11T11:30:54.627Z,93929.91
2023-06-11T11:33:24.028Z,93949.63
2023-06-11T11:35:54.985Z,93945.34
2023-06-11T11:38:23.670Z,93943.56
2023-06-11T11:40:57.242Z,93950.91
2023-06-11T11:43:25.340Z,93954.69
2023-06-11T11:45:55.000Z,93952.53
2023-06-11T11:48:27.133Z,93932.69
2023-06-11T11:51:06.954Z,93936.81
2023-06-11T11:53:35.507Z,93955.97
2023-06-11T11:56:07.168Z,93945.84
2023-06-11T11:58:39.726Z,93955.09
2023-06-11T12:01:10.009Z,93960.06
2023-06-11T12:03:39.662Z,93960.63
2023-06-11T12:06:09.096Z,93959.50
2023-06-11T12:08:38.552Z,93963.22
2023-06-11T12:11:08.476Z,93954.22
2023-06-11T12:13:36.923Z,93951.19
2023-06-11T12:16:05.717Z,93948.66
2023-06-11T12:18:34.075Z,93935.34
2023-06-11T12:21:03.851Z,93938.50
2023-06-11T12:23:32.979Z,93936.22
2023-06-11T12:26:01.571Z,93940.66
2023-06-11T12:28:29.571Z,93949.47
2023-06-11T12:30:58.168Z,93928.56
2023-06-11T12:33:26.293Z,93940.38
2023-06-11T12:35:54.268Z,93936.94
2023-06-11T12:38:23.634Z,93940.19
2023-06-11T12:40:51.755Z,93939.69
2023-06-11T12:43:19.728Z,93935.66
2023-06-11T12:45:47.672Z,93946.78
2023-06-11T12:48:16.038Z,93930.81
2023-06-11T12:50:44.239Z,93928.97
2023-06-11T12:53:12.455Z,93935.13
2023-06-11T12:55:42.104Z,93925.63
2023-06-11T12:58:10.172Z,93934.19
2023-06-11T13:00:38.104Z,93938.56
2023-06-11T13:03:07.553Z,93928.31
2023-06-11T13:05:35.790Z,93925.38
2023-06-11T13:08:03.781Z,93927.31
2023-06-11T13:10:31.753Z,93930.16
2023-06-11T13:13:01.165Z,93924.94
2023-06-11T13:15:29.169Z,93932.66
2023-06-11T13:17:58.355Z,93937.53
2023-06-11T13:20:26.435Z,93933.00
2023-06-11T13:22:54.565Z,93928.38
2023-06-11T13:25:22.736Z,93927.16
2023-06-11T13:27:50.763Z,93937.88
2023-06-11T13:30:20.411Z,93917.25
2023-06-11T13:32:48.460Z,93917.91
2023-06-11T13:35:20.397Z,93928.78
2023-06-11T13:37:48.703Z,93922.00
2023-06-11T13:40:17.114Z,93922.91
2023-06-11T13:42:45.418Z,93913.66
2023-06-11T13:45:13.861Z,93921.50
2023-06-11T13:47:43.253Z,93912.19
2023-06-11T13:50:11.865Z,93921.88
2023-06-11T13:52:40.718Z,93906.56
2023-06-11T13:55:11.151Z,93918.63
2023-06-11T13:57:39.219Z,93917.25
2023-06-11T14:00:08.894Z,93917.75
2023-06-11T14:02:37.040Z,93927.09
2023-06-11T14:05:07.144Z,93896.72
2023-06-11T14:07:35.136Z,93910.00
2023-06-11T14:10:06.239Z,93916.84
2023-06-11T14:12:34.380Z,93914.81
2023-06-11T14:15:02.392Z,93922.44
2023-06-11T14:17:31.832Z,93918.66
2023-06-11T14:19:59.862Z,93934.78
2023-06-11T14:22:29.265Z,93931.66
2023-06-11T14:24:57.335Z,93938.81
2023-06-11T14:27:25.299Z,93933.59
2023-06-11T14:29:53.679Z,93934.28
2023-06-11T14:32:21.920Z,93923.41
2023-06-11T14:34:49.924Z,93936.84
2023-06-11T14:37:17.896Z,93928.47
2023-06-11T14:39:47.233Z,93930.94
2023-06-11T14:42:15.224Z,93923.72
2023-06-11T14:44:43.175Z,93924.91
2023-06-11T14:47:11.065Z,93921.75
2023-06-11T14:49:39.088Z,93922.81
2023-06-11T14:52:10.632Z,93914.34
2023-06-11T14:54:38.860Z,93921.22
2023-06-11T14:57:15.684Z,93921.13
2023-06-11T14:59:44.680Z,93901.41
2023-06-11T15:02:15.238Z,93919.56
2023-06-11T15:04:44.525Z,93917.38
2023-06-11T15:09:46.228Z,93906.69
2023-06-11T15:12:15.554Z,93915.00
2023-06-11T15:14:43.511Z,93918.13
2023-06-11T15:17:11.511Z,93904.78
2023-06-11T15:19:39.480Z,93920.47
2023-06-11T15:22:08.188Z,93924.19
2023-06-11T15:24:36.174Z,93921.78
2023-06-11T15:27:04.544Z,93927.19
2023-06-11T15:29:33.888Z,93929.34
2023-06-11T15:32:03.730Z,93933.53
2023-06-11T15:34:31.835Z,93938.44
2023-06-11T15:36:59.911Z,93928.28
2023-06-11T15:39:27.884Z,93939.69
2023-06-11T15:41:56.060Z,93944.34
2023-06-11T15:44:24.329Z,93942.03
2023-06-11T15:46:53.661Z,93947.72
2023-06-11T15:49:21.747Z,93950.81
2023-06-11T15:51:49.777Z,93950.75
2023-06-11T15:54:17.937Z,93936.03
2023-06-11T15:56:47.943Z,93954.06
2023-06-11T15:59:16.210Z,93947.38
2023-06-11T16:01:44.545Z,93952.91
2023-06-11T16:04:14.377Z,93946.25
2023-06-11T16:06:42.557Z,93944.53
2023-06-11T16:09:10.569Z,93959.28
2023-06-11T16:11:38.975Z,93948.59
2023-06-11T16:14:06.921Z,93960.13
2023-06-11T16:16:35.472Z,93959.84
2023-06-11T16:19:03.624Z,93960.75
2023-06-11T16:21:33.081Z,93971.94
2023-06-11T16:24:01.224Z,93978.28
2023-06-11T16:26:29.192Z,93977.84
2023-06-11T16:28:57.520Z,93980.56
2023-06-11T16:31:25.726Z,93990.59
2023-06-11T16:33:58.879Z,93974.44
2023-06-11T16:36:27.184Z,93969.13
2023-06-11T16:39:01.271Z,93988.50
2023-06-11T16:41:34.570Z,93994.56
2023-06-11T16:44:02.607Z,94001.72
2023-06-11T16:46:30.603Z,94001.72
2023-06-11T16:48:58.609Z,93997.97
2023-06-11T16:51:26.591Z,93999.59
2023-06-11T16:53:54.481Z,93988.97
2023-06-11T16:58:55.578Z,94002.47
2023-06-11T17:01:23.794Z,94015.63
2023-06-11T17:03:51.988Z,94006.84
2023-06-11T17:06:20.048Z,94002.50
2023-06-11T17:08:48.070Z,94013.78
2023-06-11T17:11:16.030Z,94002.56
2023-06-11T17:13:45.452Z,94006.03
2023-06-11T17:16:13.523Z,94011.75
2023-06-11T17:18:44.616Z,94007.03
2023-06-11T17:21:12.782Z,94015.31
2023-06-11T17:23:40.784Z,94013.97
2023-06-11T17:26:08.879Z,94023.34
2023-06-11T17:28:36.942Z,94033.53
2023-06-11T17:31:09.345Z,94032.50
2023-06-11T17:33:37.759Z,94016.13
2023-06-11T17:36:08.454Z,94031.63
2023-06-11T17:38:36.723Z,94036.81
2023-06-11T17:41:04.767Z,94043.75
2023-06-11T17:43:38.494Z,94023.94
2023-06-11T17:46:12.557Z,94056.91
2023-06-11T17:48:41.086Z,94049.84
2023-06-11T17:51:11.835Z,94044.81
2023-06-11T17:53:40.037Z,94049.91
2023-06-11T17:56:08.235Z,94045.16
2023-06-11T17:58:40.718Z,94025.56
2023-06-11T18:01:11.069Z,94044.13
2023-06-11T18:03:39.155Z,94040.63
2023-06-11T18:06:07.381Z,94043.72
2023-06-11T18:08:35.778Z,94046.31
2023-06-11T18:11:03.896Z,94045.94
2023-06-11T18:13:31.943Z,94045.66
2023-06-11T18:16:00.111Z,94044.09
2023-06-11T18:18:29.595Z,94053.34
2023-06-11T18:20:57.747Z,94047.88
2023-06-11T18:23:26.208Z,94059.03
2023-06-11T18:25:54.250Z,94064.84
2023-06-11T18:28:25.428Z,94051.97
2023-06-11T18:30:54.557Z,94063.16
2023-06-11T18:33:22.626Z,94051.66
2023-06-11T18:35:52.306Z,94062.84
2023-06-11T18:38:20.294Z,94065.84
2023-06-11T18:40:48.252Z,94066.13
2023-06-11T18:43:16.340Z,94073.50
2023-06-11T18:45:44.432Z,94073.50
2023-06-11T18:48:17.374Z,94065.84
2023-06-11T18:50:45.441Z,94073.75
2023-06-11T18:53:14.795Z,94077.75
2023-06-11T18:55:42.805Z,94076.72
2023-06-11T18:58:10.765Z,94088.09
2023-06-11T19:00:38.809Z,94075.84
2023-06-11T19:03:07.014Z,94091.25
2023-06-11T19:05:35.274Z,94093.34
2023-06-11T19:08:03.610Z,94091.22
2023-06-11T19:10:33.908Z,94090.31
2023-06-11T19:13:03.523Z,94098.53
2023-06-11T19:15:31.455Z,94108.53
2023-06-11T19:18:00.516Z,94101.91
2023-06-11T19:20:33.806Z,94081.31
2023-06-11T19:23:01.834Z,94103.06
2023-06-11T19:25:29.815Z,94109.94
2023-06-11T19:28:02.028Z,94111.25
2023-06-11T19:30:30.160Z,94107.25
2023-06-11T19:32:58.304Z,94096.81
2023-06-11T19:35:26.443Z,94122.00
2023-06-11T19:37:54.411Z,94111.91
2023-06-11T19:40:22.359Z,94114.34
2023-06-11T19:42:50.334Z,94116.09
2023-06-11T19:45:21.686Z,94106.59
2023-06-11T19:47:49.927Z,94111.56
2023-06-11T19:50:22.058Z,94100.31
2023-06-11T19:52:50.427Z,94108.25
2023-06-11T19:55:19.514Z,94098.41
2023-06-11T19:57:47.618Z,94099.09
2023-06-11T20:00:17.662Z,94085.75
2023-06-11T20:02:48.246Z,94094.81
2023-06-11T20:05:16.304Z,94091.03
2023-06-11T20:07:44.273Z,94093.56
2023-06-11T20:10:12.555Z,94092.22
2023-06-11T20:12:40.806Z,94094.91
2023-06-11T20:15:09.701Z,94090.13
2023-06-11T20:17:37.733Z,94086.94
2023-06-11T20:20:09.191Z,94084.84
2023-06-11T20:22:37.272Z,94081.28
2023-06-11T20:25:05.791Z,94071.94
2023-06-11T20:27:33.741Z,94082.63
2023-06-11T20:30:01.760Z,94089.81
2023-06-11T20:32:29.949Z,94088.78
2023-06-11T20:34:57.941Z,94096.94
2023-06-11T20:37:27.465Z,94102.19
2023-06-11T20:39:55.378Z,94106.13
2023-06-11T20:42:23.301Z,94098.13
2023-06-11T20:44:51.515Z,94098.31
2023-06-11T20:47:19.616Z,94103.41
2023-06-11T20:49:48.951Z,94094.94
2023-06-11T20:52:18.624Z,94096.53
2023-06-11T20:54:48.263Z,94093.03
2023-06-11T20:57:16.212Z,94095.13
2023-06-11T20:59:44.555Z,94089.53
2023-06-11T21:02:12.491Z,94084.31
2023-06-11T21:04:40.575Z,94081.78
2023-06-11T21:07:08.555Z,94082.34
2023-06-11T21:09:36.433Z,94086.25
2023-06-11T21:12:06.338Z,94079.06
2023-06-11T21:14:34.247Z,94079.97
2023-06-11T21:17:02.176Z,94086.88
2023-06-11T21:19:30.112Z,94085.69
2023-06-11T21:21:58.014Z,94083.63
2023-06-11T21:24:26.036Z,94082.81
2023-06-11T21:26:54.216Z,94086.66
2023-06-11T21:29:23.524Z,94090.75
2023-06-11T21:31:51.607Z,94078.69
2023-06-11T21:34:19.732Z,94090.78
2023-06-11T21:36:48.931Z,94089.09
2023-06-11T21:39:17.594Z,94081.28
2023-06-11T21:41:45.580Z,94076.00
2023-06-11T21:44:14.244Z,94077.28
2023-06-11T21:46:44.174Z,94069.63
2023-06-11T21:49:12.274Z,94055.09
2023-06-11T21:51:40.254Z,94067.56
2023-06-11T21:54:08.226Z,94062.22
2023-06-11T21:56:36.189Z,94063.78
2023-06-11T21:59:04.379Z,94069.41
2023-06-11T22:01:32.346Z,94068.84
2023-06-11T22:04:01.740Z,94068.53
2023-06-11T22:06:29.841Z,94067.38
2023-06-11T22:08:58.310Z,94064.31
2023-06-11T22:11:29.559Z,94056.78
2023-06-11T22:13:57.702Z,94054.41
2023-06-11T22:16:25.780Z,94057.91
2023-06-11T22:18:54.006Z,94042.66
2023-06-11T22:21:26.098Z,94038.69
2023-06-11T22:23:56.578Z,94052.78
2023-06-11T22:26:24.635Z,94046.84
2023-06-11T22:28:53.044Z,94037.75
2023-06-11T22:31:21.027Z,94037.06
2023-06-11T22:33:49.062Z,94038.19
2023-06-11T22:36:17.044Z,94037.56
2023-06-11T22:38:46.846Z,94031.97
2023-06-11T22:41:17.139Z,94034.84
2023-06-11T22:43:45.155Z,94030.59
2023-06-11T22:46:13.156Z,94022.72
2023-06-11T22:48:42.461Z,94019.31
2023-06-11T22:51:14.164Z,94020.56
2023-06-11T22:53:42.184Z,94028.13
2023-06-11T22:56:12.827Z,94028.69
2023-06-11T22:58:40.858Z,94020.59
2023-06-11T23:01:08.812Z,94020.72
2023-06-11T23:03:36.887Z,93998.75
2023-06-11T23:06:05.161Z,94013.38
2023-06-11T23:08:33.147Z,94020.25
2023-06-11T23:11:01.078Z,94012.16
2023-06-11T23:13:30.380Z,94013.19
2023-06-11T23:15:58.357Z,94003.25
2023-06-11T23:18:26.259Z,94007.69
2023-06-11T23:20:54.958Z,94004.81
2023-06-11T23:23:23.702Z,94015.22
2023-06-11T23:25:51.918Z,94010.19
2023-06-11T23:28:23.790Z,94002.56
2023-06-11T23:30:54.089Z,94008.41
2023-06-11T23:33:23.453Z,93999.63
2023-06-11T23:35:51.932Z,94003.72
2023-06-11T23:38:20.076Z,94007.13
2023-06-11T23:40:48.033Z,94010.56
2023-06-11T23:43:16.063Z,94010.34
2023-06-11T23:45:43.967Z,94005.53
2023-06-11T23:48:13.347Z,94005.22
2023-06-11T23:50:43.141Z,94014.91
2023-06-11T23:53:11.721Z,94009.78
2023-06-11T23:55:39.739Z,94004.56
2023-06-11T23:58:18.918Z,94004.88
